sensor_id;sensor_type;location;lat;lon;timestamp;pressure;altitude;pressure_sealevel;temperature;humidity
59493;BME280;45497;43.996;22.876;2024-01-30T00:04:52;103792.03;;;3.38;55.15
59493;BME280;45497;43.996;22.876;2024-01-30T00:11:12;103799.28;;;3.30;55.69
59493;BME280;45497;43.996;22.876;2024-01-30T00:13:50;103791.66;;;3.20;56.04
59493;BME280;45497;43.996;22.876;2024-01-30T00:16:39;103787.31;;;3.21;55.73
59493;BME280;45497;43.996;22.876;2024-01-30T00:19:05;103791.50;;;3.27;56.16
59493;BME280;45497;43.996;22.876;2024-01-30T00:22:11;103794.63;;;3.38;55.72
59493;BME280;45497;43.996;22.876;2024-01-30T00:25:09;103782.66;;;3.29;55.80
59493;BME280;45497;43.996;22.876;2024-01-30T00:27:51;103787.81;;;3.32;56.03
59493;BME280;45497;43.996;22.876;2024-01-30T00:33:51;103788.00;;;3.54;55.50
59493;BME280;45497;43.996;22.876;2024-01-30T00:36:30;103786.16;;;3.58;55.22
59493;BME280;45497;43.996;22.876;2024-01-30T00:39:02;103791.41;;;3.58;55.30
59493;BME280;45497;43.996;22.876;2024-01-30T00:41:56;103787.44;;;3.44;55.89
59493;BME280;45497;43.996;22.876;2024-01-30T00:44:45;103782.00;;;3.51;55.39
59493;BME280;45497;43.996;22.876;2024-01-30T00:47:23;103773.50;;;3.44;55.52
59493;BME280;45497;43.996;22.876;2024-01-30T00:55:33;103775.66;;;3.58;55.22
59493;BME280;45497;43.996;22.876;2024-01-30T02:40:03;103776.19;;;3.96;54.58
59493;BME280;45497;43.996;22.876;2024-01-30T02:42:35;103781.59;;;3.91;54.24
59493;BME280;45497;43.996;22.876;2024-01-30T02:50:27;103783.53;;;3.58;54.76
59493;BME280;45497;43.996;22.876;2024-01-30T02:53:02;103781.91;;;3.25;55.77
59493;BME280;45497;43.996;22.876;2024-01-30T02:55:41;103777.22;;;3.37;55.68
59493;BME280;45497;43.996;22.876;2024-01-30T02:58:16;103782.59;;;3.60;55.03
59493;BME280;45497;43.996;22.876;2024-01-30T03:00:45;103772.69;;;3.69;54.47
59493;BME280;45497;43.996;22.876;2024-01-30T03:03:10;103772.38;;;3.78;53.91
59493;BME280;45497;43.996;22.876;2024-01-30T03:05:39;103775.00;;;3.78;54.02
59493;BME280;45497;43.996;22.876;2024-01-30T03:08:27;103770.59;;;3.80;53.69
59493;BME280;45497;43.996;22.876;2024-01-30T03:14:32;103767.16;;;3.78;53.38
59493;BME280;45497;43.996;22.876;2024-01-30T03:16:58;103764.53;;;3.78;53.63
59493;BME280;45497;43.996;22.876;2024-01-30T03:19:24;103771.22;;;3.87;53.25
59493;BME280;45497;43.996;22.876;2024-01-30T03:21:50;103778.16;;;3.89;53.03
59493;BME280;45497;43.996;22.876;2024-01-30T03:24:16;103764.03;;;3.67;53.54
59493;BME280;45497;43.996;22.876;2024-01-30T03:26:43;103770.16;;;3.39;54.07
59493;BME280;45497;43.996;22.876;2024-01-30T03:29:09;103777.09;;;3.40;54.19
59493;BME280;45497;43.996;22.876;2024-01-30T03:31:35;103760.25;;;3.47;54.00
59493;BME280;45497;43.996;22.876;2024-01-30T03:34:01;103761.56;;;3.62;53.35
59493;BME280;45497;43.996;22.876;2024-01-30T03:36:35;103762.72;;;3.53;53.66
59493;BME280;45497;43.996;22.876;2024-01-30T03:39:04;103777.34;;;3.60;53.36
59493;BME280;45497;43.996;22.876;2024-01-30T03:41:38;103770.91;;;3.42;53.75
59493;BME280;45497;43.996;22.876;2024-01-30T03:44:09;103775.09;;;3.20;54.10
59493;BME280;45497;43.996;22.876;2024-01-30T03:46:41;103777.09;;;3.12;54.25
59493;BME280;45497;43.996;22.876;2024-01-30T03:49:10;103775.63;;;3.01;54.42
59493;BME280;45497;43.996;22.876;2024-01-30T03:51:36;103771.94;;;3.09;54.63
59493;BME280;45497;43.996;22.876;2024-01-30T03:54:05;103774.19;;;3.21;54.59
59493;BME280;45497;43.996;22.876;2024-01-30T03:56:40;103766.75;;;3.35;54.21
59493;BME280;45497;43.996;22.876;2024-01-30T03:59:25;103777.84;;;3.43;53.83
59493;BME280;45497;43.996;22.876;2024-01-30T04:01:53;103768.75;;;3.27;54.09
59493;BME280;45497;43.996;22.876;2024-01-30T04:04:32;103780.66;;;3.09;54.53
59493;BME280;45497;43.996;22.876;2024-01-30T04:06:58;103773.81;;;3.03;54.80
59493;BME280;45497;43.996;22.876;2024-01-30T04:09:30;103781.38;;;3.14;54.45
59493;BME280;45497;43.996;22.876;2024-01-30T04:12:11;103769.13;;;3.15;54.62
59493;BME280;45497;43.996;22.876;2024-01-30T04:14:49;103772.06;;;3.34;54.16
59493;BME280;45497;43.996;22.876;2024-01-30T18:09:01;103553.91;;;5.30;42.31
59493;BME280;45497;43.996;22.876;2024-01-30T18:11:27;103557.84;;;5.20;42.55
59493;BME280;45497;43.996;22.876;2024-01-30T18:14:02;103551.13;;;5.13;42.48
59493;BME280;45497;43.996;22.876;2024-01-30T18:16:28;103538.38;;;5.04;42.04
59493;BME280;45497;43.996;22.876;2024-01-30T18:18:57;103542.72;;;5.05;42.62
59493;BME280;45497;43.996;22.876;2024-01-30T18:21:36;103548.59;;;5.11;42.36
59493;BME280;45497;43.996;22.876;2024-01-30T18:24:02;103547.53;;;5.15;42.33
59493;BME280;45497;43.996;22.876;2024-01-30T18:26:28;103538.19;;;5.08;42.30
59493;BME280;45497;43.996;22.876;2024-01-30T19:09:41;103549.75;;;3.42;44.11
59493;BME280;45497;43.996;22.876;2024-01-30T19:43:37;103545.56;;;3.11;43.80
59493;BME280;45497;43.996;22.876;2024-01-30T19:46:06;103542.03;;;3.12;44.09
59493;BME280;45497;43.996;22.876;2024-01-30T19:48:45;103538.63;;;3.10;43.98
59493;BME280;45497;43.996;22.876;2024-01-30T19:51:11;103536.06;;;3.09;43.99
59493;BME280;45497;43.996;22.876;2024-01-30T19:57:21;103535.34;;;3.03;44.10
59493;BME280;45497;43.996;22.876;2024-01-30T20:16:22;103535.88;;;2.60;44.50
59493;BME280;45497;43.996;22.876;2024-01-30T20:18:47;103538.69;;;2.54;44.58
59493;BME280;45497;43.996;22.876;2024-01-30T20:21:15;103533.00;;;2.39;44.91
59493;BME280;45497;43.996;22.876;2024-01-30T20:23:41;103524.41;;;2.36;44.70
59493;BME280;45497;43.996;22.876;2024-01-30T20:26:10;103523.38;;;2.41;44.79
59493;BME280;45497;43.996;22.876;2024-01-30T20:28:35;103524.97;;;2.45;44.71
59493;BME280;45497;43.996;22.876;2024-01-30T20:31:01;103516.22;;;2.46;44.55
59493;BME280;45497;43.996;22.876;2024-01-30T20:33:41;103513.47;;;2.51;44.54
59493;BME280;45497;43.996;22.876;2024-01-30T20:36:07;103518.31;;;2.35;44.54
59493;BME280;45497;43.996;22.876;2024-01-30T20:38:36;103519.28;;;2.33;44.64
59493;BME280;45497;43.996;22.876;2024-01-30T20:41:05;103521.84;;;2.34;44.85
59493;BME280;45497;43.996;22.876;2024-01-30T20:43:37;103508.31;;;2.20;44.73
59493;BME280;45497;43.996;22.876;2024-01-30T20:46:03;103495.56;;;2.09;45.07
59493;BME280;45497;43.996;22.876;2024-01-30T20:48:31;103497.09;;;2.16;45.00
59493;BME280;45497;43.996;22.876;2024-01-30T20:50:57;103496.81;;;2.25;44.90
59493;BME280;45497;43.996;22.876;2024-01-30T20:53:25;103499.50;;;2.22;44.85
59493;BME280;45497;43.996;22.876;2024-01-30T20:55:51;103494.28;;;2.22;44.85
59493;BME280;45497;43.996;22.876;2024-01-30T20:58:25;103487.31;;;2.21;44.83
59493;BME280;45497;43.996;22.876;2024-01-30T21:00:54;103497.34;;;2.07;44.97
59493;BME280;45497;43.996;22.876;2024-01-30T21:03:29;103484.38;;;2.04;45.03
59493;BME280;45497;43.996;22.876;2024-01-30T21:05:57;103493.03;;;2.06;44.96
59493;BME280;45497;43.996;22.876;2024-01-30T21:08:24;103480.19;;;1.98;44.99
59493;BME280;45497;43.996;22.876;2024-01-30T21:10:52;103482.59;;;2.04;44.83
59493;BME280;45497;43.996;22.876;2024-01-30T21:13:23;103475.59;;;2.05;44.84
59493;BME280;45497;43.996;22.876;2024-01-30T21:16:00;103490.31;;;2.09;44.73
59493;BME280;45497;43.996;22.876;2024-01-30T21:18:30;103497.63;;;1.68;45.57
59493;BME280;45497;43.996;22.876;2024-01-30T21:21:00;103486.16;;;1.41;46.15
59493;BME280;45497;43.996;22.876;2024-01-30T21:23:26;103489.63;;;1.41;45.95
59493;BME280;45497;43.996;22.876;2024-01-30T21:25:52;103479.44;;;1.32;45.92
59493;BME280;45497;43.996;22.876;2024-01-30T21:28:25;103490.13;;;1.23;46.40
59493;BME280;45497;43.996;22.876;2024-01-30T21:30:57;103487.84;;;1.10;46.45
59493;BME280;45497;43.996;22.876;2024-01-30T21:33:25;103494.09;;;1.05;46.73
59493;BME280;45497;43.996;22.876;2024-01-30T21:35:54;103490.75;;;0.98;46.96
59493;BME280;45497;43.996;22.876;2024-01-30T21:38:25;103493.38;;;0.98;46.99
59493;BME280;45497;43.996;22.876;2024-01-30T21:40:55;103484.19;;;1.16;46.51
59493;BME280;45497;43.996;22.876;2024-01-30T21:43:21;103491.94;;;1.21;46.06
59493;BME280;45497;43.996;22.876;2024-01-30T21:45:49;103499.34;;;1.03;46.72
59493;BME280;45497;43.996;22.876;2024-01-30T21:48:15;103493.16;;;0.71;47.40
59493;BME280;45497;43.996;22.876;2024-01-30T21:50:41;103496.69;;;0.70;47.25
59493;BME280;45497;43.996;22.876;2024-01-30T21:53:07;103501.78;;;0.75;47.54
59493;BME280;45497;43.996;22.876;2024-01-30T21:55:38;103497.56;;;0.69;47.17
59493;BME280;45497;43.996;22.876;2024-01-30T21:58:04;103491.03;;;0.51;47.69
59493;BME280;45497;43.996;22.876;2024-01-30T22:00:33;103487.00;;;0.38;48.04
59493;BME280;45497;43.996;22.876;2024-01-30T22:03:00;103493.81;;;0.44;48.13
59493;BME280;45497;43.996;22.876;2024-01-30T22:05:28;103487.69;;;0.45;48.10
59493;BME280;45497;43.996;22.876;2024-01-30T22:07:54;103489.97;;;0.59;47.77
59493;BME280;45497;43.996;22.876;2024-01-30T22:10:20;103485.22;;;0.76;47.32
59493;BME280;45497;43.996;22.876;2024-01-30T22:12:58;103468.47;;;0.85;47.25
59493;BME280;45497;43.996;22.876;2024-01-30T22:15:26;103482.94;;;0.98;46.60
59493;BME280;45497;43.996;22.876;2024-01-30T22:17:54;103468.91;;;1.01;46.64
59493;BME280;45497;43.996;22.876;2024-01-30T22:20:25;103472.31;;;1.04;46.57
59493;BME280;45497;43.996;22.876;2024-01-30T22:23:05;103472.97;;;1.12;46.21
59493;BME280;45497;43.996;22.876;2024-01-30T22:25:41;103479.56;;;1.26;46.30
59493;BME280;45497;43.996;22.876;2024-01-30T22:28:09;103468.13;;;1.31;45.99
59493;BME280;45497;43.996;22.876;2024-01-30T22:30:37;103466.47;;;1.27;46.17
59493;BME280;45497;43.996;22.876;2024-01-30T22:33:03;103475.88;;;1.34;46.20
59493;BME280;45497;43.996;22.876;2024-01-30T22:35:31;103473.28;;;1.33;46.00
59493;BME280;45497;43.996;22.876;2024-01-30T22:38:06;103465.44;;;1.33;45.93
59493;BME280;45497;43.996;22.876;2024-01-30T22:40:33;103473.41;;;1.30;45.85
59493;BME280;45497;43.996;22.876;2024-01-30T22:42:59;103464.75;;;1.28;45.91
59493;BME280;45497;43.996;22.876;2024-01-30T22:45:25;103469.28;;;1.21;46.06
59493;BME280;45497;43.996;22.876;2024-01-30T22:47:51;103472.88;;;1.17;46.13
59493;BME280;45497;43.996;22.876;2024-01-30T22:50:16;103468.41;;;1.21;46.18
59493;BME280;45497;43.996;22.876;2024-01-30T22:52:42;103463.25;;;0.85;46.86
59493;BME280;45497;43.996;22.876;2024-01-30T22:55:11;103478.19;;;0.42;48.10
59493;BME280;45497;43.996;22.876;2024-01-30T22:57:39;103462.81;;;0.30;48.10
59493;BME280;45497;43.996;22.876;2024-01-30T23:00:05;103467.25;;;0.26;48.21
59493;BME280;45497;43.996;22.876;2024-01-30T23:02:43;103468.50;;;0.08;48.50
59493;BME280;45497;43.996;22.876;2024-01-30T23:05:13;103465.31;;;-0.05;48.85
59493;BME280;45497;43.996;22.876;2024-01-30T23:07:42;103451.78;;;-0.22;48.89
59493;BME280;45497;43.996;22.876;2024-01-30T23:10:08;103457.66;;;-0.12;48.83
59493;BME280;45497;43.996;22.876;2024-01-30T23:12:35;103457.47;;;-0.03;48.33
59493;BME280;45497;43.996;22.876;2024-01-30T23:15:02;103460.88;;;0.01;48.19
59493;BME280;45497;43.996;22.876;2024-01-30T23:17:32;103458.28;;;-0.01;48.19
59493;BME280;45497;43.996;22.876;2024-01-30T23:19:59;103457.34;;;0.02;48.13
59493;BME280;45497;43.996;22.876;2024-01-30T23:22:30;103446.25;;;-0.07;48.40
59493;BME280;45497;43.996;22.876;2024-01-30T23:24:56;103457.28;;;0.05;48.31
59493;BME280;45497;43.996;22.876;2024-01-30T23:27:22;103461.28;;;0.21;47.73
59493;BME280;45497;43.996;22.876;2024-01-30T23:29:53;103455.28;;;0.16;47.82
59493;BME280;45497;43.996;22.876;2024-01-30T23:32:19;103459.69;;;0.14;47.74
59493;BME280;45497;43.996;22.876;2024-01-30T23:34:44;103444.63;;;-0.12;48.02
59493;BME280;45497;43.996;22.876;2024-01-30T23:37:10;103432.44;;;-0.12;48.07
59493;BME280;45497;43.996;22.876;2024-01-30T23:39:39;103443.41;;;0.04;48.07
59493;BME280;45497;43.996;22.876;2024-01-30T23:42:07;103439.16;;;0.00;47.91
59493;BME280;45497;43.996;22.876;2024-01-30T23:44:36;103447.06;;;-0.05;48.05
59493;BME280;45497;43.996;22.876;2024-01-30T23:47:07;103429.03;;;-0.14;48.15
59493;BME280;45497;43.996;22.876;2024-01-30T23:49:35;103434.78;;;0.01;48.01
59493;BME280;45497;43.996;22.876;2024-01-30T23:52:04;103426.63;;;0.14;47.98
59493;BME280;45497;43.996;22.876;2024-01-30T23:54:29;103421.22;;;0.24;47.56
59493;BME280;45497;43.996;22.876;2024-01-30T23:56:55;103422.81;;;0.31;47.31
59493;BME280;45497;43.996;22.876;2024-01-30T23:59:21;103422.84;;;0.29;47.11
